sensor_id;sensor_type;location;lat;lon;timestamp;P1;durP1;ratioP1;P2;durP2;ratioP2
23670;SDS011;12012;51.998;7.614;2023-01-19T00:00:25;30.63;;;15.75;;
23670;SDS011;12012;51.998;7.614;2023-01-19T00:02:51;27.70;;;16.20;;
23670;SDS011;12012;51.998;7.614;2023-01-19T00:05:19;30.17;;;16.55;;
23670;SDS011;12012;51.998;7.614;2023-01-19T00:07:45;27.02;;;16.23;;
23670;SDS011;12012;51.998;7.614;2023-01-19T00:10:10;27.58;;;16.48;;
23670;SDS011;12012;51.998;7.614;2023-01-19T00:12:36;28.73;;;17.30;;
23670;SDS011;12012;51.998;7.614;2023-01-19T00:15:02;29.58;;;17.27;;
23670;SDS011;12012;51.998;7.614;2023-01-19T00:17:28;33.65;;;18.23;;
23670;SDS011;12012;51.998;7.614;2023-01-19T00:19:54;29.27;;;17.90;;
23670;SDS011;12012;51.998;7.614;2023-01-19T00:22:20;34.13;;;18.45;;
23670;SDS011;12012;51.998;7.614;2023-01-19T00:24:45;35.97;;;18.25;;
23670;SDS011;12012;51.998;7.614;2023-01-19T00:27:11;31.02;;;17.40;;
23670;SDS011;12012;51.998;7.614;2023-01-19T00:29:36;30.08;;;18.52;;
23670;SDS011;12012;51.998;7.614;2023-01-19T00:32:03;31.85;;;19.38;;
23670;SDS011;12012;51.998;7.614;2023-01-19T00:34:29;30.27;;;18.50;;
23670;SDS011;12012;51.998;7.614;2023-01-19T00:37:01;36.83;;;19.02;;
23670;SDS011;12012;51.998;7.614;2023-01-19T00:39:28;30.63;;;18.48;;
23670;SDS011;12012;51.998;7.614;2023-01-19T00:41:53;32.85;;;19.00;;
23670;SDS011;12012;51.998;7.614;2023-01-19T00:44:37;31.63;;;19.75;;
23670;SDS011;12012;51.998;7.614;2023-01-19T00:47:03;34.10;;;20.25;;
23670;SDS011;12012;51.998;7.614;2023-01-19T00:49:29;35.67;;;20.48;;
23670;SDS011;12012;51.998;7.614;2023-01-19T00:51:55;31.58;;;19.60;;
23670;SDS011;12012;51.998;7.614;2023-01-19T00:54:21;33.72;;;19.67;;
23670;SDS011;12012;51.998;7.614;2023-01-19T00:56:46;34.53;;;20.40;;
23670;SDS011;12012;51.998;7.614;2023-01-19T00:59:12;36.13;;;19.95;;
23670;SDS011;12012;51.998;7.614;2023-01-19T01:01:37;35.00;;;20.58;;
23670;SDS011;12012;51.998;7.614;2023-01-19T01:04:03;36.50;;;20.55;;
23670;SDS011;12012;51.998;7.614;2023-01-19T01:06:29;33.28;;;21.17;;
23670;SDS011;12012;51.998;7.614;2023-01-19T01:08:54;33.03;;;20.45;;
23670;SDS011;12012;51.998;7.614;2023-01-19T01:11:20;35.35;;;21.40;;
23670;SDS011;12012;51.998;7.614;2023-01-19T01:13:45;32.80;;;20.35;;
23670;SDS011;12012;51.998;7.614;2023-01-19T01:16:13;30.92;;;20.85;;
23670;SDS011;12012;51.998;7.614;2023-01-19T01:18:39;33.97;;;21.30;;
23670;SDS011;12012;51.998;7.614;2023-01-19T01:21:05;34.90;;;20.23;;
23670;SDS011;12012;51.998;7.614;2023-01-19T01:23:31;37.33;;;22.38;;
23670;SDS011;12012;51.998;7.614;2023-01-19T01:25:57;37.38;;;21.75;;
23670;SDS011;12012;51.998;7.614;2023-01-19T01:28:23;38.75;;;22.05;;
23670;SDS011;12012;51.998;7.614;2023-01-19T01:30:51;36.20;;;21.52;;
23670;SDS011;12012;51.998;7.614;2023-01-19T01:33:21;37.50;;;22.65;;
23670;SDS011;12012;51.998;7.614;2023-01-19T01:35:47;36.92;;;22.55;;
23670;SDS011;12012;51.998;7.614;2023-01-19T01:38:13;36.35;;;22.42;;
23670;SDS011;12012;51.998;7.614;2023-01-19T01:40:39;32.88;;;22.05;;
23670;SDS011;12012;51.998;7.614;2023-01-19T01:43:09;40.10;;;23.17;;
23670;SDS011;12012;51.998;7.614;2023-01-19T01:45:37;46.40;;;25.30;;
23670;SDS011;12012;51.998;7.614;2023-01-19T01:50:51;39.42;;;23.33;;
23670;SDS011;12012;51.998;7.614;2023-01-19T01:53:43;48.28;;;23.13;;
23670;SDS011;12012;51.998;7.614;2023-01-19T01:56:12;42.05;;;24.02;;
23670;SDS011;12012;51.998;7.614;2023-01-19T01:58:41;42.17;;;23.65;;
23670;SDS011;12012;51.998;7.614;2023-01-19T02:01:08;44.45;;;25.23;;
23670;SDS011;12012;51.998;7.614;2023-01-19T02:03:52;36.28;;;22.85;;
23670;SDS011;12012;51.998;7.614;2023-01-19T02:06:20;38.83;;;24.55;;
23670;SDS011;12012;51.998;7.614;2023-01-19T02:08:49;39.67;;;23.92;;
23670;SDS011;12012;51.998;7.614;2023-01-19T02:11:40;42.05;;;23.95;;
23670;SDS011;12012;51.998;7.614;2023-01-19T02:14:25;37.42;;;23.67;;
23670;SDS011;12012;51.998;7.614;2023-01-19T02:16:50;39.53;;;25.00;;
23670;SDS011;12012;51.998;7.614;2023-01-19T02:19:17;41.63;;;23.98;;
23670;SDS011;12012;51.998;7.614;2023-01-19T02:21:56;42.03;;;24.45;;
23670;SDS011;12012;51.998;7.614;2023-01-19T02:24:27;39.60;;;23.65;;
23670;SDS011;12012;51.998;7.614;2023-01-19T02:26:53;41.30;;;25.05;;
23670;SDS011;12012;51.998;7.614;2023-01-19T02:29:20;38.80;;;23.75;;
23670;SDS011;12012;51.998;7.614;2023-01-19T02:31:48;43.28;;;24.02;;
23670;SDS011;12012;51.998;7.614;2023-01-19T02:34:15;46.60;;;25.90;;
23670;SDS011;12012;51.998;7.614;2023-01-19T02:36:49;36.00;;;23.25;;
23670;SDS011;12012;51.998;7.614;2023-01-19T02:42:10;40.47;;;23.25;;
23670;SDS011;12012;51.998;7.614;2023-01-19T02:44:38;37.33;;;24.15;;
23670;SDS011;12012;51.998;7.614;2023-01-19T02:47:07;37.00;;;21.92;;
23670;SDS011;12012;51.998;7.614;2023-01-19T02:49:33;37.15;;;23.80;;
23670;SDS011;12012;51.998;7.614;2023-01-19T02:51:58;38.28;;;23.75;;
23670;SDS011;12012;51.998;7.614;2023-01-19T02:57:34;40.88;;;22.88;;
23670;SDS011;12012;51.998;7.614;2023-01-19T03:03:08;38.67;;;23.63;;
23670;SDS011;12012;51.998;7.614;2023-01-19T03:05:54;39.42;;;23.30;;
23670;SDS011;12012;51.998;7.614;2023-01-19T03:08:32;41.15;;;23.35;;
23670;SDS011;12012;51.998;7.614;2023-01-19T03:11:14;41.85;;;24.00;;
23670;SDS011;12012;51.998;7.614;2023-01-19T03:13:41;40.88;;;25.27;;
23670;SDS011;12012;51.998;7.614;2023-01-19T03:16:13;40.13;;;24.92;;
23670;SDS011;12012;51.998;7.614;2023-01-19T03:18:45;43.30;;;25.73;;
23670;SDS011;12012;51.998;7.614;2023-01-19T03:21:17;38.70;;;24.90;;
23670;SDS011;12012;51.998;7.614;2023-01-19T03:23:46;41.10;;;26.63;;
23670;SDS011;12012;51.998;7.614;2023-01-19T03:26:15;39.33;;;26.00;;
23670;SDS011;12012;51.998;7.614;2023-01-19T03:28:43;43.53;;;26.73;;
23670;SDS011;12012;51.998;7.614;2023-01-19T03:31:15;44.47;;;24.70;;
23670;SDS011;12012;51.998;7.614;2023-01-19T03:33:46;47.05;;;27.52;;
23670;SDS011;12012;51.998;7.614;2023-01-19T03:36:20;43.22;;;26.30;;
23670;SDS011;12012;51.998;7.614;2023-01-19T03:38:50;50.72;;;25.70;;
23670;SDS011;12012;51.998;7.614;2023-01-19T03:41:18;47.33;;;27.02;;
23670;SDS011;12012;51.998;7.614;2023-01-19T03:43:48;43.63;;;24.92;;
23670;SDS011;12012;51.998;7.614;2023-01-19T03:46:16;46.03;;;25.02;;
23670;SDS011;12012;51.998;7.614;2023-01-19T03:48:43;44.55;;;25.48;;
23670;SDS011;12012;51.998;7.614;2023-01-19T03:51:10;44.75;;;25.85;;
23670;SDS011;12012;51.998;7.614;2023-01-19T03:53:37;44.42;;;24.50;;
23670;SDS011;12012;51.998;7.614;2023-01-19T03:56:03;43.72;;;25.48;;
23670;SDS011;12012;51.998;7.614;2023-01-19T03:58:29;44.65;;;25.52;;
23670;SDS011;12012;51.998;7.614;2023-01-19T04:00:54;44.90;;;25.23;;
23670;SDS011;12012;51.998;7.614;2023-01-19T04:03:20;39.28;;;25.17;;
23670;SDS011;12012;51.998;7.614;2023-01-19T04:05:45;40.10;;;23.95;;
23670;SDS011;12012;51.998;7.614;2023-01-19T04:08:11;44.80;;;24.23;;
23670;SDS011;12012;51.998;7.614;2023-01-19T04:10:37;41.60;;;23.35;;
23670;SDS011;12012;51.998;7.614;2023-01-19T04:13:03;38.25;;;23.88;;
23670;SDS011;12012;51.998;7.614;2023-01-19T04:15:29;40.70;;;23.80;;
23670;SDS011;12012;51.998;7.614;2023-01-19T04:17:59;42.95;;;23.10;;
23670;SDS011;12012;51.998;7.614;2023-01-19T04:20:25;43.33;;;23.35;;
23670;SDS011;12012;51.998;7.614;2023-01-19T04:22:52;38.00;;;21.85;;
23670;SDS011;12012;51.998;7.614;2023-01-19T04:25:22;41.88;;;22.48;;
23670;SDS011;12012;51.998;7.614;2023-01-19T04:27:50;40.85;;;22.00;;
23670;SDS011;12012;51.998;7.614;2023-01-19T04:30:16;35.08;;;21.67;;
23670;SDS011;12012;51.998;7.614;2023-01-19T04:32:42;42.50;;;22.55;;
23670;SDS011;12012;51.998;7.614;2023-01-19T04:35:08;40.08;;;22.48;;
23670;SDS011;12012;51.998;7.614;2023-01-19T04:37:33;39.42;;;22.90;;
23670;SDS011;12012;51.998;7.614;2023-01-19T04:39:59;41.30;;;23.10;;
23670;SDS011;12012;51.998;7.614;2023-01-19T04:42:25;41.45;;;23.85;;
23670;SDS011;12012;51.998;7.614;2023-01-19T04:44:51;46.28;;;24.08;;
23670;SDS011;12012;51.998;7.614;2023-01-19T04:47:17;43.72;;;25.00;;
23670;SDS011;12012;51.998;7.614;2023-01-19T04:49:43;41.05;;;23.88;;
23670;SDS011;12012;51.998;7.614;2023-01-19T04:52:09;43.58;;;25.08;;
23670;SDS011;12012;51.998;7.614;2023-01-19T04:54:35;44.15;;;25.98;;
23670;SDS011;12012;51.998;7.614;2023-01-19T04:57:00;41.60;;;24.58;;
23670;SDS011;12012;51.998;7.614;2023-01-19T04:59:26;46.33;;;25.40;;
23670;SDS011;12012;51.998;7.614;2023-01-19T05:01:51;46.03;;;25.45;;
23670;SDS011;12012;51.998;7.614;2023-01-19T05:04:17;44.03;;;25.48;;
23670;SDS011;12012;51.998;7.614;2023-01-19T05:06:42;43.30;;;25.38;;
23670;SDS011;12012;51.998;7.614;2023-01-19T05:09:08;41.83;;;24.92;;
23670;SDS011;12012;51.998;7.614;2023-01-19T05:11:37;43.35;;;25.13;;
23670;SDS011;12012;51.998;7.614;2023-01-19T05:14:02;39.13;;;22.90;;
23670;SDS011;12012;51.998;7.614;2023-01-19T05:16:28;42.47;;;24.00;;
23670;SDS011;12012;51.998;7.614;2023-01-19T05:18:53;41.78;;;23.10;;
23670;SDS011;12012;51.998;7.614;2023-01-19T05:21:19;40.45;;;23.73;;
23670;SDS011;12012;51.998;7.614;2023-01-19T05:23:45;38.17;;;21.90;;
23670;SDS011;12012;51.998;7.614;2023-01-19T05:26:10;35.42;;;22.38;;
23670;SDS011;12012;51.998;7.614;2023-01-19T05:28:36;34.03;;;22.17;;
23670;SDS011;12012;51.998;7.614;2023-01-19T05:31:02;33.13;;;21.13;;
23670;SDS011;12012;51.998;7.614;2023-01-19T05:33:27;36.70;;;21.95;;
23670;SDS011;12012;51.998;7.614;2023-01-19T05:35:53;35.92;;;22.55;;
23670;SDS011;12012;51.998;7.614;2023-01-19T05:38:19;37.50;;;22.75;;
23670;SDS011;12012;51.998;7.614;2023-01-19T05:40:46;35.10;;;21.83;;
23670;SDS011;12012;51.998;7.614;2023-01-19T05:43:12;39.45;;;22.98;;
23670;SDS011;12012;51.998;7.614;2023-01-19T05:45:38;37.55;;;23.15;;
23670;SDS011;12012;51.998;7.614;2023-01-19T05:48:05;38.30;;;22.67;;
23670;SDS011;12012;51.998;7.614;2023-01-19T05:50:31;35.30;;;22.73;;
23670;SDS011;12012;51.998;7.614;2023-01-19T05:52:56;35.08;;;22.27;;
23670;SDS011;12012;51.998;7.614;2023-01-19T05:55:23;35.53;;;22.48;;
23670;SDS011;12012;51.998;7.614;2023-01-19T05:57:49;37.15;;;22.73;;
23670;SDS011;12012;51.998;7.614;2023-01-19T06:00:15;36.85;;;22.83;;
23670;SDS011;12012;51.998;7.614;2023-01-19T06:02:40;37.97;;;22.77;;
23670;SDS011;12012;51.998;7.614;2023-01-19T06:05:06;38.25;;;22.83;;
23670;SDS011;12012;51.998;7.614;2023-01-19T06:07:32;38.42;;;22.92;;
23670;SDS011;12012;51.998;7.614;2023-01-19T06:09:58;36.38;;;22.60;;
23670;SDS011;12012;51.998;7.614;2023-01-19T06:12:23;42.22;;;24.23;;
23670;SDS011;12012;51.998;7.614;2023-01-19T06:14:49;38.40;;;23.40;;
23670;SDS011;12012;51.998;7.614;2023-01-19T06:17:14;36.83;;;22.65;;
23670;SDS011;12012;51.998;7.614;2023-01-19T06:19:40;36.97;;;22.55;;
23670;SDS011;12012;51.998;7.614;2023-01-19T06:22:05;37.50;;;21.45;;
23670;SDS011;12012;51.998;7.614;2023-01-19T06:24:31;36.95;;;21.58;;
23670;SDS011;12012;51.998;7.614;2023-01-19T06:26:57;30.67;;;19.67;;
23670;SDS011;12012;51.998;7.614;2023-01-19T06:29:24;32.00;;;19.63;;
23670;SDS011;12012;51.998;7.614;2023-01-19T06:31:50;31.98;;;19.88;;
23670;SDS011;12012;51.998;7.614;2023-01-19T06:34:16;29.17;;;18.45;;
23670;SDS011;12012;51.998;7.614;2023-01-19T06:36:42;29.30;;;17.92;;
23670;SDS011;12012;51.998;7.614;2023-01-19T06:39:08;27.95;;;16.70;;
23670;SDS011;12012;51.998;7.614;2023-01-19T06:41:34;27.90;;;17.83;;
23670;SDS011;12012;51.998;7.614;2023-01-19T06:44:00;27.63;;;17.25;;
23670;SDS011;12012;51.998;7.614;2023-01-19T06:46:26;30.27;;;16.48;;
23670;SDS011;12012;51.998;7.614;2023-01-19T06:48:52;27.00;;;16.23;;
23670;SDS011;12012;51.998;7.614;2023-01-19T06:51:18;27.95;;;16.55;;
23670;SDS011;12012;51.998;7.614;2023-01-19T06:53:44;30.70;;;17.15;;
23670;SDS011;12012;51.998;7.614;2023-01-19T06:56:10;30.73;;;17.02;;
23670;SDS011;12012;51.998;7.614;2023-01-19T06:58:35;26.85;;;16.52;;
23670;SDS011;12012;51.998;7.614;2023-01-19T07:01:02;28.83;;;17.10;;
23670;SDS011;12012;51.998;7.614;2023-01-19T07:03:29;30.13;;;16.85;;
23670;SDS011;12012;51.998;7.614;2023-01-19T07:05:55;28.52;;;16.98;;
23670;SDS011;12012;51.998;7.614;2023-01-19T07:08:21;26.35;;;16.15;;
23670;SDS011;12012;51.998;7.614;2023-01-19T07:10:47;26.55;;;16.38;;
23670;SDS011;12012;51.998;7.614;2023-01-19T07:13:13;26.48;;;16.25;;
23670;SDS011;12012;51.998;7.614;2023-01-19T07:15:39;25.48;;;15.93;;
23670;SDS011;12012;51.998;7.614;2023-01-19T07:18:05;27.60;;;16.30;;
23670;SDS011;12012;51.998;7.614;2023-01-19T07:20:35;26.83;;;15.77;;
23670;SDS011;12012;51.998;7.614;2023-01-19T07:23:02;25.63;;;14.77;;
23670;SDS011;12012;51.998;7.614;2023-01-19T07:25:28;26.48;;;15.70;;
23670;SDS011;12012;51.998;7.614;2023-01-19T07:27:57;24.38;;;15.30;;
23670;SDS011;12012;51.998;7.614;2023-01-19T07:30:24;26.48;;;15.73;;
23670;SDS011;12012;51.998;7.614;2023-01-19T07:32:50;28.30;;;14.85;;
23670;SDS011;12012;51.998;7.614;2023-01-19T07:35:15;25.17;;;16.38;;
23670;SDS011;12012;51.998;7.614;2023-01-19T07:37:41;25.35;;;15.38;;
23670;SDS011;12012;51.998;7.614;2023-01-19T07:40:06;24.90;;;16.00;;
23670;SDS011;12012;51.998;7.614;2023-01-19T07:42:32;23.45;;;15.32;;
23670;SDS011;12012;51.998;7.614;2023-01-19T07:44:58;29.20;;;16.33;;
23670;SDS011;12012;51.998;7.614;2023-01-19T07:47:24;25.10;;;15.77;;
23670;SDS011;12012;51.998;7.614;2023-01-19T07:49:50;24.58;;;15.15;;
23670;SDS011;12012;51.998;7.614;2023-01-19T07:52:16;29.77;;;16.02;;
23670;SDS011;12012;51.998;7.614;2023-01-19T07:54:42;25.85;;;15.52;;
23670;SDS011;12012;51.998;7.614;2023-01-19T07:57:07;29.90;;;15.80;;
23670;SDS011;12012;51.998;7.614;2023-01-19T07:59:33;28.75;;;16.38;;
23670;SDS011;12012;51.998;7.614;2023-01-19T08:01:58;30.50;;;16.77;;
23670;SDS011;12012;51.998;7.614;2023-01-19T08:04:25;33.05;;;16.52;;
23670;SDS011;12012;51.998;7.614;2023-01-19T08:06:51;26.65;;;16.15;;
23670;SDS011;12012;51.998;7.614;2023-01-19T08:09:16;27.52;;;16.42;;
23670;SDS011;12012;51.998;7.614;2023-01-19T08:11:42;27.13;;;16.05;;
23670;SDS011;12012;51.998;7.614;2023-01-19T08:14:08;28.33;;;15.65;;
23670;SDS011;12012;51.998;7.614;2023-01-19T08:16:34;30.75;;;16.95;;
23670;SDS011;12012;51.998;7.614;2023-01-19T08:19:00;31.00;;;16.88;;
23670;SDS011;12012;51.998;7.614;2023-01-19T08:21:26;30.13;;;16.52;;
23670;SDS011;12012;51.998;7.614;2023-01-19T08:23:52;30.45;;;17.25;;
23670;SDS011;12012;51.998;7.614;2023-01-19T08:26:19;31.05;;;16.52;;
23670;SDS011;12012;51.998;7.614;2023-01-19T08:28:48;31.02;;;16.52;;
23670;SDS011;12012;51.998;7.614;2023-01-19T08:31:13;36.63;;;17.33;;
23670;SDS011;12012;51.998;7.614;2023-01-19T08:33:39;32.53;;;18.27;;
23670;SDS011;12012;51.998;7.614;2023-01-19T08:36:06;33.28;;;16.52;;
23670;SDS011;12012;51.998;7.614;2023-01-19T08:38:32;32.05;;;17.38;;
23670;SDS011;12012;51.998;7.614;2023-01-19T08:40:58;35.15;;;17.33;;
23670;SDS011;12012;51.998;7.614;2023-01-19T08:43:23;34.72;;;17.15;;
23670;SDS011;12012;51.998;7.614;2023-01-19T08:45:50;29.92;;;16.73;;
23670;SDS011;12012;51.998;7.614;2023-01-19T08:48:17;30.25;;;16.33;;
23670;SDS011;12012;51.998;7.614;2023-01-19T08:50:46;26.95;;;16.50;;
23670;SDS011;12012;51.998;7.614;2023-01-19T08:53:12;27.13;;;15.60;;
23670;SDS011;12012;51.998;7.614;2023-01-19T08:55:38;37.08;;;15.65;;
23670;SDS011;12012;51.998;7.614;2023-01-19T08:58:05;22.45;;;14.95;;
23670;SDS011;12012;51.998;7.614;2023-01-19T09:00:33;25.13;;;14.82;;
23670;SDS011;12012;51.998;7.614;2023-01-19T09:03:01;30.98;;;14.55;;
23670;SDS011;12012;51.998;7.614;2023-01-19T09:05:27;27.10;;;14.75;;
23670;SDS011;12012;51.998;7.614;2023-01-19T09:10:26;29.02;;;13.60;;
23670;SDS011;12012;51.998;7.614;2023-01-19T09:12:55;23.33;;;12.63;;
23670;SDS011;12012;51.998;7.614;2023-01-19T09:15:21;23.40;;;12.50;;
23670;SDS011;12012;51.998;7.614;2023-01-19T09:17:47;24.50;;;12.95;;
23670;SDS011;12012;51.998;7.614;2023-01-19T09:20:12;28.08;;;13.02;;
23670;SDS011;12012;51.998;7.614;2023-01-19T09:22:38;20.48;;;12.27;;
23670;SDS011;12012;51.998;7.614;2023-01-19T09:25:04;22.65;;;11.38;;
23670;SDS011;12012;51.998;7.614;2023-01-19T09:27:31;19.77;;;10.90;;
23670;SDS011;12012;51.998;7.614;2023-01-19T09:29:57;21.00;;;10.77;;
23670;SDS011;12012;51.998;7.614;2023-01-19T09:32:22;21.73;;;11.05;;
23670;SDS011;12012;51.998;7.614;2023-01-19T09:34:48;20.50;;;10.68;;
23670;SDS011;12012;51.998;7.614;2023-01-19T09:37:14;19.73;;;10.10;;
23670;SDS011;12012;51.998;7.614;2023-01-19T09:39:40;18.95;;;10.02;;
23670;SDS011;12012;51.998;7.614;2023-01-19T09:44:43;15.25;;;9.75;;
23670;SDS011;12012;51.998;7.614;2023-01-19T09:47:14;25.42;;;10.70;;
23670;SDS011;12012;51.998;7.614;2023-01-19T09:49:44;22.70;;;10.90;;
23670;SDS011;12012;51.998;7.614;2023-01-19T09:52:15;26.73;;;10.88;;
23670;SDS011;12012;51.998;7.614;2023-01-19T09:54:55;30.80;;;11.55;;
23670;SDS011;12012;51.998;7.614;2023-01-19T09:57:21;27.02;;;11.45;;
23670;SDS011;12012;51.998;7.614;2023-01-19T09:59:49;19.27;;;10.98;;
23670;SDS011;12012;51.998;7.614;2023-01-19T10:04:59;23.98;;;11.13;;
23670;SDS011;12012;51.998;7.614;2023-01-19T10:13:15;24.40;;;12.45;;
23670;SDS011;12012;51.998;7.614;2023-01-19T10:15:44;27.38;;;11.10;;
23670;SDS011;12012;51.998;7.614;2023-01-19T10:18:12;25.25;;;10.73;;
23670;SDS011;12012;51.998;7.614;2023-01-19T10:26:14;28.40;;;9.82;;
23670;SDS011;12012;51.998;7.614;2023-01-19T10:28:42;17.67;;;8.00;;
23670;SDS011;12012;51.998;7.614;2023-01-19T10:31:11;14.60;;;7.90;;
23670;SDS011;12012;51.998;7.614;2023-01-19T10:33:37;22.13;;;7.85;;
23670;SDS011;12012;51.998;7.614;2023-01-19T10:36:04;18.05;;;7.35;;
23670;SDS011;12012;51.998;7.614;2023-01-19T10:38:30;21.73;;;6.97;;
23670;SDS011;12012;51.998;7.614;2023-01-19T10:41:02;20.05;;;7.35;;
23670;SDS011;12012;51.998;7.614;2023-01-19T10:46:03;16.13;;;7.68;;
23670;SDS011;12012;51.998;7.614;2023-01-19T10:48:41;18.13;;;8.43;;
23670;SDS011;12012;51.998;7.614;2023-01-19T10:51:08;16.25;;;7.30;;
23670;SDS011;12012;51.998;7.614;2023-01-19T10:53:34;19.83;;;7.72;;
23670;SDS011;12012;51.998;7.614;2023-01-19T10:58:37;15.15;;;6.90;;
23670;SDS011;12012;51.998;7.614;2023-01-19T11:01:14;12.32;;;6.57;;
23670;SDS011;12012;51.998;7.614;2023-01-19T11:03:48;13.85;;;6.85;;
23670;SDS011;12012;51.998;7.614;2023-01-19T11:06:18;16.92;;;7.15;;
23670;SDS011;12012;51.998;7.614;2023-01-19T11:08:50;16.73;;;7.00;;
23670;SDS011;12012;51.998;7.614;2023-01-19T11:11:17;16.02;;;7.57;;
23670;SDS011;12012;51.998;7.614;2023-01-19T11:13:44;14.65;;;7.82;;
23670;SDS011;12012;51.998;7.614;2023-01-19T11:16:26;18.65;;;7.70;;
23670;SDS011;12012;51.998;7.614;2023-01-19T11:18:55;14.85;;;7.32;;
23670;SDS011;12012;51.998;7.614;2023-01-19T11:21:25;17.17;;;7.88;;
23670;SDS011;12012;51.998;7.614;2023-01-19T11:23:53;19.80;;;7.78;;
23670;SDS011;12012;51.998;7.614;2023-01-19T11:28:52;15.15;;;7.35;;
23670;SDS011;12012;51.998;7.614;2023-01-19T11:33:52;17.60;;;7.30;;
23670;SDS011;12012;51.998;7.614;2023-01-19T11:36:26;14.23;;;7.65;;
23670;SDS011;12012;51.998;7.614;2023-01-19T11:38:58;15.23;;;7.05;;
23670;SDS011;12012;51.998;7.614;2023-01-19T11:43:58;16.58;;;7.03;;
23670;SDS011;12012;51.998;7.614;2023-01-19T11:46:42;16.10;;;7.10;;
23670;SDS011;12012;51.998;7.614;2023-01-19T11:52:04;12.90;;;6.60;;
23670;SDS011;12012;51.998;7.614;2023-01-19T11:54:52;12.85;;;6.45;;
23670;SDS011;12012;51.998;7.614;2023-01-19T11:57:27;15.18;;;6.53;;
23670;SDS011;12012;51.998;7.614;2023-01-19T11:59:53;13.20;;;6.25;;
23670;SDS011;12012;51.998;7.614;2023-01-19T12:02:22;12.07;;;6.95;;
23670;SDS011;12012;51.998;7.614;2023-01-19T12:04:55;12.73;;;7.13;;
23670;SDS011;12012;51.998;7.614;2023-01-19T12:07:28;16.40;;;7.05;;
23670;SDS011;12012;51.998;7.614;2023-01-19T12:10:01;11.52;;;6.90;;
23670;SDS011;12012;51.998;7.614;2023-01-19T12:12:44;15.40;;;6.82;;
23670;SDS011;12012;51.998;7.614;2023-01-19T12:15:18;12.73;;;7.18;;
23670;SDS011;12012;51.998;7.614;2023-01-19T12:17:55;11.27;;;6.18;;
23670;SDS011;12012;51.998;7.614;2023-01-19T12:20:26;14.80;;;6.47;;
23670;SDS011;12012;51.998;7.614;2023-01-19T12:23:07;13.32;;;7.10;;
23670;SDS011;12012;51.998;7.614;2023-01-19T12:28:30;11.38;;;6.63;;
23670;SDS011;12012;51.998;7.614;2023-01-19T12:30:59;11.00;;;6.15;;
23670;SDS011;12012;51.998;7.614;2023-01-19T12:41:22;13.57;;;6.82;;
23670;SDS011;12012;51.998;7.614;2023-01-19T12:46:33;15.30;;;8.23;;
23670;SDS011;12012;51.998;7.614;2023-01-19T12:51:38;17.67;;;9.38;;
23670;SDS011;12012;51.998;7.614;2023-01-19T12:54:05;18.88;;;9.63;;
23670;SDS011;12012;51.998;7.614;2023-01-19T12:56:42;26.17;;;10.50;;
23670;SDS011;12012;51.998;7.614;2023-01-19T12:59:13;25.42;;;9.63;;
23670;SDS011;12012;51.998;7.614;2023-01-19T13:05:02;14.98;;;9.00;;
23670;SDS011;12012;51.998;7.614;2023-01-19T13:21:27;16.52;;;10.38;;
23670;SDS011;12012;51.998;7.614;2023-01-19T13:23:55;19.50;;;9.48;;
23670;SDS011;12012;51.998;7.614;2023-01-19T13:26:32;16.42;;;9.50;;
23670;SDS011;12012;51.998;7.614;2023-01-19T13:29:20;19.25;;;10.23;;
23670;SDS011;12012;51.998;7.614;2023-01-19T13:31:54;23.10;;;9.98;;
23670;SDS011;12012;51.998;7.614;2023-01-19T13:34:26;19.10;;;9.32;;
23670;SDS011;12012;51.998;7.614;2023-01-19T13:36:55;19.73;;;9.27;;
23670;SDS011;12012;51.998;7.614;2023-01-19T13:42:04;19.63;;;9.43;;
23670;SDS011;12012;51.998;7.614;2023-01-19T13:44:53;18.42;;;9.13;;
23670;SDS011;12012;51.998;7.614;2023-01-19T13:47:22;18.77;;;10.07;;
23670;SDS011;12012;51.998;7.614;2023-01-19T13:50:00;16.00;;;9.75;;
23670;SDS011;12012;51.998;7.614;2023-01-19T13:52:27;21.90;;;10.18;;
23670;SDS011;12012;51.998;7.614;2023-01-19T13:54:56;20.25;;;10.48;;
23670;SDS011;12012;51.998;7.614;2023-01-19T14:00:03;23.27;;;11.07;;
23670;SDS011;12012;51.998;7.614;2023-01-19T14:02:39;20.10;;;11.82;;
23670;SDS011;12012;51.998;7.614;2023-01-19T14:05:39;25.65;;;11.02;;
23670;SDS011;12012;51.998;7.614;2023-01-19T14:10:39;20.30;;;11.27;;
23670;SDS011;12012;51.998;7.614;2023-01-19T14:13:12;23.90;;;12.07;;
23670;SDS011;12012;51.998;7.614;2023-01-19T14:15:40;20.50;;;10.85;;
23670;SDS011;12012;51.998;7.614;2023-01-19T14:18:10;20.30;;;11.77;;
23670;SDS011;12012;51.998;7.614;2023-01-19T14:26:02;22.23;;;12.82;;
23670;SDS011;12012;51.998;7.614;2023-01-19T14:28:28;26.85;;;13.63;;
23670;SDS011;12012;51.998;7.614;2023-01-19T14:31:24;28.00;;;13.13;;
23670;SDS011;12012;51.998;7.614;2023-01-19T14:33:54;23.15;;;13.43;;
23670;SDS011;12012;51.998;7.614;2023-01-19T14:36:26;26.17;;;14.13;;
23670;SDS011;12012;51.998;7.614;2023-01-19T14:39:03;28.50;;;14.15;;
23670;SDS011;12012;51.998;7.614;2023-01-19T14:41:39;28.75;;;14.25;;
23670;SDS011;12012;51.998;7.614;2023-01-19T14:44:16;25.45;;;13.85;;
23670;SDS011;12012;51.998;7.614;2023-01-19T14:46:53;26.70;;;15.00;;
23670;SDS011;12012;51.998;7.614;2023-01-19T14:49:28;31.98;;;14.48;;
23670;SDS011;12012;51.998;7.614;2023-01-19T14:51:56;24.98;;;13.77;;
23670;SDS011;12012;51.998;7.614;2023-01-19T14:54:41;27.20;;;14.93;;
23670;SDS011;12012;51.998;7.614;2023-01-19T14:57:10;29.13;;;14.65;;
23670;SDS011;12012;51.998;7.614;2023-01-19T14:59:37;29.85;;;14.75;;
23670;SDS011;12012;51.998;7.614;2023-01-19T15:02:02;29.13;;;14.85;;
23670;SDS011;12012;51.998;7.614;2023-01-19T15:04:28;31.23;;;15.68;;
23670;SDS011;12012;51.998;7.614;2023-01-19T15:06:54;32.25;;;15.85;;
23670;SDS011;12012;51.998;7.614;2023-01-19T15:09:19;40.15;;;15.80;;
23670;SDS011;12012;51.998;7.614;2023-01-19T15:11:46;36.80;;;15.30;;
23670;SDS011;12012;51.998;7.614;2023-01-19T15:14:13;31.25;;;15.48;;
23670;SDS011;12012;51.998;7.614;2023-01-19T15:16:39;28.55;;;16.13;;
23670;SDS011;12012;51.998;7.614;2023-01-19T15:19:08;37.30;;;16.95;;
23670;SDS011;12012;51.998;7.614;2023-01-19T15:21:35;38.63;;;17.23;;
23670;SDS011;12012;51.998;7.614;2023-01-19T15:24:05;35.20;;;17.60;;
23670;SDS011;12012;51.998;7.614;2023-01-19T15:26:35;30.83;;;14.82;;
23670;SDS011;12012;51.998;7.614;2023-01-19T15:29:09;33.90;;;17.98;;
23670;SDS011;12012;51.998;7.614;2023-01-19T15:31:39;39.17;;;19.58;;
23670;SDS011;12012;51.998;7.614;2023-01-19T15:34:07;41.10;;;19.13;;
23670;SDS011;12012;51.998;7.614;2023-01-19T15:36:35;43.63;;;19.52;;
23670;SDS011;12012;51.998;7.614;2023-01-19T15:39:01;38.25;;;19.25;;
23670;SDS011;12012;51.998;7.614;2023-01-19T15:41:27;47.42;;;20.23;;
23670;SDS011;12012;51.998;7.614;2023-01-19T15:43:54;38.60;;;19.65;;
23670;SDS011;12012;51.998;7.614;2023-01-19T15:46:20;41.28;;;19.65;;
23670;SDS011;12012;51.998;7.614;2023-01-19T15:48:46;46.10;;;20.58;;
23670;SDS011;12012;51.998;7.614;2023-01-19T15:51:13;49.03;;;21.20;;
23670;SDS011;12012;51.998;7.614;2023-01-19T15:53:41;47.15;;;21.90;;
23670;SDS011;12012;51.998;7.614;2023-01-19T15:56:14;45.17;;;21.23;;
23670;SDS011;12012;51.998;7.614;2023-01-19T15:58:52;47.65;;;20.88;;
23670;SDS011;12012;51.998;7.614;2023-01-19T16:01:19;45.95;;;22.15;;
23670;SDS011;12012;51.998;7.614;2023-01-19T16:03:46;43.45;;;22.67;;